KBYG

Johnson County Airport

Buffalo, Wyoming, USA
METAR KBYG 232253Z AUTO 15005KT 10SM CLR 01/M12 A3017 RMK AO2 SLP242 T00061122
Observed Flight Rules
Jan-23 @ 22:53 UTC (45 minutes ago) Visual Flight Rules
Wind Visibility Clouds
150° at 5 knots 10 miles
  • Clear skies
Temperatures Readings
Current 1°C / 34°F
Dewpoint -12°C / 10°F
Humidity 38%
Altimeter 30.17" Hg
Pressure 1024.2 hPa
Elevation 1497
METAR KBYG 232253Z AUTO 15005KT 10SM CLR 01/M12 A3017 RMK AO2 SLP242 T00061122
Observed Flight Rules
Jan-23 @ 22:53 UTC
(45 minutes ago)
VFR
Wind Visibility
150° at 5 knots 10 miles
Clouds
  • Clear skies
Temperature Dewpoint
1°C / 34°F -12°C / 10°F
Humidity Altimeter Pressure
38% 30.17" Hg 1024.2 hPa